KRNO/RNO METAR and TAF weather

Enter ICAO airport designator
Station Type Date Time Source
KRNO METAR 2019/04/25 11:55 UTC NOAA

KRNO 251155Z 28004KT 10SM CLR 13/03 A3010 RMK AO2 SLP143 T01280033 10200 20122 55000 $


Station Type Date Time Source
KRNO Decoded METAR 2019/04/25 11:55 UTC NOAA

RENO/TAHOE INTERNATIONAL AIRPORT, NV, United States (KRNO) 39-29N 119-46W 1342M
Apr 25, 2019 - 07:55 AM EDT / 2019.04.25 1155 UTC
Wind: from the W (280 degrees) at 5 MPH (4 KT):0
Visibility: 10 mile(s):0
Sky conditions: clear
Temperature: 55.0 F (12.8 C)
Dew Point: 37.9 F (3.3 C)
Relative Humidity: 52%
Pressure (altimeter): 30.1 in. Hg (1019 hPa)
Pressure tendency: 0.00 inches (0.0 hPa) lower than three hours ago
ob: KRNO 251155Z 28004KT 10SM CLR 13/03 A3010 RMK AO2 SLP143 T01280033 10200 20122 55000
cycle: 12

Station Type Date Time Source
KRNO TAF 2019/04/25 12:22 UTC NOAA

TAF KRNO 251120Z 2512/2612 VRB05KT P6SM FEW200
FM252000 28012G22KT P6SM SCT080
FM260500 31009G16KT P6SM FEW220

Example: see airport list